createdAt,value
2017-11-13T00:00:18.991Z,8.65
2017-11-13T00:00:59.543Z,8.65
2017-11-13T00:01:40.087Z,8.68
2017-11-13T00:02:20.636Z,8.65
2017-11-13T00:03:01.189Z,8.71
2017-11-13T00:03:41.714Z,8.58
2017-11-13T00:04:22.261Z,8.55
2017-11-13T00:05:02.805Z,8.53
2017-11-13T00:05:43.322Z,8.58
2017-11-13T00:06:23.877Z,8.65
2017-11-13T00:07:04.446Z,8.48
2017-11-13T00:07:44.966Z,8.59
2017-11-13T00:08:25.533Z,8.65
2017-11-13T00:09:06.051Z,8.68
2017-11-13T00:09:46.670Z,8.62
2017-11-13T00:10:27.213Z,8.66
2017-11-13T00:11:07.764Z,8.77
2017-11-13T00:11:48.382Z,8.77
2017-11-13T00:12:28.916Z,8.62
2017-11-13T00:13:09.453Z,8.56
2017-11-13T00:13:50.021Z,8.55
2017-11-13T00:14:30.579Z,8.45
2017-11-13T00:15:11.091Z,8.56
2017-11-13T00:15:51.614Z,8.45
2017-11-13T00:16:32.168Z,8.56
2017-11-13T00:17:12.860Z,8.37
2017-11-13T00:17:53.398Z,8.33
2017-11-13T00:18:33.945Z,8.34
2017-11-13T00:19:14.525Z,8.38
2017-11-13T00:19:55.081Z,8.41
2017-11-13T00:20:35.613Z,8.41
2017-11-13T00:21:16.146Z,8.34
2017-11-13T00:21:56.727Z,8.34
2017-11-13T00:22:37.240Z,8.4
2017-11-13T00:23:17.907Z,8.33
2017-11-13T00:23:58.467Z,8.38
2017-11-13T00:24:39.015Z,8.48
2017-11-13T00:25:19.561Z,8.47
2017-11-13T00:26:00.066Z,8.41
2017-11-13T00:26:40.679Z,8.38
2017-11-13T00:27:21.283Z,8.38
2017-11-13T00:28:01.824Z,8.37
2017-11-13T00:28:42.382Z,8.47
2017-11-13T00:29:22.950Z,8.5
2017-11-13T00:30:03.482Z,8.4
2017-11-13T00:30:44.007Z,8.5
2017-11-13T00:31:24.555Z,8.55
2017-11-13T00:32:05.099Z,8.47
2017-11-13T00:32:45.630Z,8.47
2017-11-13T00:33:26.145Z,8.58
2017-11-13T00:34:06.713Z,8.59
2017-11-13T00:34:47.239Z,8.58
2017-11-13T00:35:27.840Z,8.47
2017-11-13T00:36:08.391Z,8.48
2017-11-13T00:36:48.921Z,8.47
2017-11-13T00:37:29.459Z,8.5
2017-11-13T00:38:09.998Z,8.52
2017-11-13T00:38:50.536Z,8.47
2017-11-13T00:39:31.066Z,8.44
2017-11-13T00:40:11.618Z,8.44
2017-11-13T00:40:52.212Z,8.4
2017-11-13T00:41:32.763Z,8.44
2017-11-13T00:42:13.307Z,8.38
2017-11-13T00:42:53.862Z,8.45
2017-11-13T00:43:34.388Z,8.52
2017-11-13T00:44:14.985Z,8.48
2017-11-13T00:44:55.595Z,8.48
2017-11-13T00:45:36.112Z,8.44
2017-11-13T00:46:16.665Z,8.41
2017-11-13T00:46:57.171Z,8.45
2017-11-13T00:47:37.696Z,8.52
2017-11-13T00:48:18.578Z,8.55
2017-11-13T00:48:59.104Z,8.59
2017-11-13T00:49:39.748Z,8.56
2017-11-13T00:50:20.298Z,8.7
2017-11-13T00:51:00.868Z,8.76
2017-11-13T00:51:41.415Z,8.68
2017-11-13T00:52:21.963Z,8.68
2017-11-13T00:53:02.531Z,8.65
2017-11-13T00:53:43.043Z,8.65
2017-11-13T00:54:23.631Z,8.63
2017-11-13T00:55:04.244Z,8.56
2017-11-13T00:55:44.736Z,8.58
2017-11-13T00:56:25.285Z,8.45
2017-11-13T00:57:05.862Z,8.4
2017-11-13T00:57:46.378Z,8.29
2017-11-13T00:58:26.927Z,8.37
2017-11-13T00:59:07.470Z,8.47
2017-11-13T00:59:48.019Z,8.41
2017-11-13T01:00:28.554Z,8.44
2017-11-13T01:01:09.104Z,8.48
2017-11-13T01:01:49.633Z,8.48
2017-11-13T01:02:30.189Z,8.4
2017-11-13T01:03:10.740Z,8.45
2017-11-13T01:03:51.261Z,8.48
2017-11-13T01:04:31.811Z,8.43
2017-11-13T01:05:12.350Z,8.45
2017-11-13T01:05:52.963Z,8.4
2017-11-13T01:06:33.474Z,8.41
2017-11-13T01:07:14.069Z,8.41
2017-11-13T01:07:54.602Z,8.41
2017-11-13T01:08:35.165Z,8.4
2017-11-13T01:09:15.672Z,8.41
2017-11-13T01:09:56.206Z,8.36
2017-11-13T01:10:36.756Z,8.37
2017-11-13T01:11:17.319Z,8.3
2017-11-13T01:11:57.853Z,8.34
2017-11-13T01:12:38.419Z,8.43
2017-11-13T01:13:18.973Z,8.4
2017-11-13T01:13:59.512Z,8.36
2017-11-13T01:14:40.075Z,8.45
2017-11-13T01:15:20.632Z,8.58
2017-11-13T01:16:01.183Z,8.55
2017-11-13T01:16:41.749Z,8.65
2017-11-13T01:17:22.280Z,8.56
2017-11-13T01:18:02.815Z,8.45
2017-11-13T01:18:43.400Z,8.45
2017-11-13T01:19:23.931Z,8.5
2017-11-13T01:20:04.461Z,8.65
2017-11-13T01:20:45.004Z,8.59
2017-11-13T01:21:25.534Z,8.5
2017-11-13T01:22:06.072Z,8.5
2017-11-13T01:22:46.597Z,8.47
2017-11-13T01:23:27.143Z,8.37
2017-11-13T01:24:07.673Z,8.48
2017-11-13T01:24:48.243Z,8.47
2017-11-13T01:25:28.772Z,8.66
2017-11-13T01:26:09.328Z,8.66
2017-11-13T01:26:49.878Z,8.62
2017-11-13T01:27:30.422Z,8.59
2017-11-13T01:28:10.952Z,8.62
2017-11-13T01:28:51.491Z,8.59
2017-11-13T01:29:32.080Z,8.65
2017-11-13T01:30:12.590Z,8.55
2017-11-13T01:30:53.107Z,8.66
2017-11-13T01:31:33.644Z,8.59
2017-11-13T01:32:14.174Z,8.61
2017-11-13T01:32:54.847Z,8.7
2017-11-13T01:33:35.327Z,8.58
2017-11-13T01:34:15.870Z,8.52
2017-11-13T01:34:56.397Z,8.56
2017-11-13T01:35:37.737Z,8.48
2017-11-13T01:36:18.316Z,8.58
2017-11-13T01:36:58.859Z,8.62
2017-11-13T01:37:39.407Z,8.62
2017-11-13T01:38:19.938Z,8.58
2017-11-13T01:39:00.489Z,8.58
2017-11-13T01:39:41.012Z,8.58
2017-11-13T01:40:21.548Z,8.56
2017-11-13T01:41:02.091Z,8.7
2017-11-13T01:41:42.623Z,8.65
2017-11-13T01:42:23.166Z,8.66
2017-11-13T01:43:03.731Z,8.74
2017-11-13T01:43:44.270Z,8.71
2017-11-13T01:44:24.824Z,8.65
2017-11-13T01:45:05.341Z,8.62
2017-11-13T01:45:45.876Z,8.65
2017-11-13T01:46:26.394Z,8.47
2017-11-13T01:47:06.949Z,8.43
2017-11-13T01:47:47.507Z,8.48
2017-11-13T01:48:28.038Z,8.61
2017-11-13T01:49:08.583Z,8.58
2017-11-13T01:49:49.128Z,8.5
2017-11-13T01:50:29.656Z,8.4
2017-11-13T01:51:10.188Z,8.44
2017-11-13T01:51:50.753Z,8.33
2017-11-13T01:52:31.287Z,8.36
2017-11-13T01:53:11.834Z,8.36
2017-11-13T01:53:52.362Z,8.44
2017-11-13T01:54:32.901Z,8.5
2017-11-13T01:55:13.431Z,8.45
2017-11-13T01:55:53.947Z,8.37
2017-11-13T01:56:34.488Z,8.41
2017-11-13T01:57:15.049Z,8.37
2017-11-13T01:57:55.577Z,8.41
2017-11-13T01:58:36.099Z,8.3
2017-11-13T01:59:16.634Z,8.43
2017-11-13T01:59:57.201Z,8.4
2017-11-13T02:00:37.747Z,8.38
2017-11-13T02:01:18.290Z,8.4
2017-11-13T02:01:58.829Z,8.4
2017-11-13T02:02:39.363Z,8.38
2017-11-13T02:03:19.919Z,8.33
2017-11-13T02:04:00.460Z,8.37
2017-11-13T02:04:41.012Z,8.29
2017-11-13T02:05:21.578Z,8.28
2017-11-13T02:06:02.118Z,8.3
2017-11-13T02:06:42.664Z,8.29
2017-11-13T02:07:23.180Z,8.33
2017-11-13T02:08:03.772Z,8.29
2017-11-13T02:08:44.310Z,8.28
2017-11-13T02:09:24.879Z,8.3
2017-11-13T02:10:05.435Z,8.37
2017-11-13T02:10:45.967Z,8.41
2017-11-13T02:11:26.503Z,8.4
2017-11-13T02:12:07.027Z,8.3
2017-11-13T02:12:47.544Z,8.34
2017-11-13T02:13:28.065Z,8.26
2017-11-13T02:14:08.623Z,8.37
2017-11-13T02:14:49.182Z,8.36
2017-11-13T02:15:29.719Z,8.41
2017-11-13T02:16:10.288Z,8.33
2017-11-13T02:16:50.829Z,8.34
2017-11-13T02:17:31.422Z,8.33
2017-11-13T02:18:12.240Z,8.37
2017-11-13T02:18:52.812Z,8.38
2017-11-13T02:19:33.332Z,8.33
2017-11-13T02:20:13.897Z,8.18
2017-11-13T02:20:54.471Z,8.33
2017-11-13T02:21:34.995Z,8.38
2017-11-13T02:22:15.549Z,8.34
2017-11-13T02:22:56.104Z,8.38
2017-11-13T02:23:36.679Z,8.48
2017-11-13T02:24:17.190Z,8.43
2017-11-13T02:24:57.741Z,8.45
2017-11-13T02:25:38.280Z,8.5
2017-11-13T02:26:18.822Z,8.58
2017-11-13T02:26:59.390Z,8.53
2017-11-13T02:27:39.933Z,8.56
2017-11-13T02:28:20.473Z,8.43
2017-11-13T02:29:01.009Z,8.41
2017-11-13T02:29:41.647Z,8.43
2017-11-13T02:30:22.220Z,8.44
2017-11-13T02:31:02.748Z,8.4
2017-11-13T02:31:43.259Z,8.37
2017-11-13T02:32:23.820Z,8.5
2017-11-13T02:33:04.390Z,8.44
2017-11-13T02:33:44.911Z,8.61
2017-11-13T02:34:25.458Z,8.52
2017-11-13T02:35:05.982Z,8.47
2017-11-13T02:35:46.586Z,8.45
2017-11-13T02:36:27.091Z,8.43
2017-11-13T02:37:07.659Z,8.44
2017-11-13T02:37:48.323Z,8.4
2017-11-13T02:38:28.899Z,8.36
2017-11-13T02:39:09.464Z,8.33
2017-11-13T02:39:50.012Z,8.33
2017-11-13T02:40:30.575Z,8.26
2017-11-13T02:41:11.109Z,8.29
2017-11-13T02:41:51.653Z,8.28
2017-11-13T02:42:32.213Z,8.33
2017-11-13T02:43:12.753Z,8.26
2017-11-13T02:43:53.328Z,8.23
2017-11-13T02:44:33.950Z,8.28
2017-11-13T02:45:14.470Z,8.4
2017-11-13T02:45:54.997Z,8.37
2017-11-13T02:46:35.529Z,8.45
2017-11-13T02:47:16.159Z,8.48
2017-11-13T02:47:56.709Z,8.56
2017-11-13T02:48:37.244Z,8.56
2017-11-13T02:49:17.945Z,8.62
2017-11-13T02:49:58.962Z,8.65
2017-11-13T02:50:38.867Z,8.74
2017-11-13T02:51:19.419Z,8.65
2017-11-13T02:52:00.051Z,8.47
2017-11-13T02:52:40.492Z,8.44
2017-11-13T02:53:21.021Z,8.5
2017-11-13T02:54:01.698Z,8.61
2017-11-13T02:54:42.255Z,8.52
2017-11-13T02:55:22.796Z,8.48
2017-11-13T02:56:03.300Z,8.58
2017-11-13T02:56:43.803Z,8.61
2017-11-13T02:57:24.324Z,8.58
2017-11-13T02:58:04.838Z,8.63
2017-11-13T02:58:45.378Z,8.68
2017-11-13T02:59:26.027Z,8.8
2017-11-13T03:00:06.429Z,8.79
2017-11-13T03:00:46.998Z,8.87
2017-11-13T03:01:27.516Z,8.89
2017-11-13T03:02:08.054Z,8.8
2017-11-13T03:02:48.621Z,8.65
2017-11-13T03:03:29.171Z,8.71
2017-11-13T03:04:09.727Z,8.66
2017-11-13T03:04:50.261Z,8.76
2017-11-13T03:05:30.819Z,8.62
2017-11-13T03:06:11.384Z,8.63
2017-11-13T03:06:51.938Z,8.56
2017-11-13T03:07:32.459Z,8.65
2017-11-13T03:08:13.023Z,8.62
2017-11-13T03:08:53.542Z,8.63
2017-11-13T03:09:34.085Z,8.77
2017-11-13T03:10:14.632Z,8.76
2017-11-13T03:10:55.368Z,8.77
2017-11-13T03:11:35.939Z,8.77
2017-11-13T03:12:16.506Z,8.66
2017-11-13T03:12:57.442Z,8.74
2017-11-13T03:13:37.990Z,8.71
2017-11-13T03:14:18.540Z,8.68
2017-11-13T03:14:59.079Z,8.68
2017-11-13T03:15:39.616Z,8.63
2017-11-13T03:16:20.165Z,8.53
2017-11-13T03:17:00.726Z,8.62
2017-11-13T03:17:41.225Z,8.55
2017-11-13T03:18:21.766Z,8.55
2017-11-13T03:19:02.331Z,8.55
2017-11-13T03:19:42.885Z,8.63
2017-11-13T03:20:23.490Z,8.66
2017-11-13T03:21:03.980Z,8.55
2017-11-13T03:21:44.505Z,8.7
2017-11-13T03:22:25.039Z,8.77
2017-11-13T03:23:05.605Z,8.61
2017-11-13T03:23:46.103Z,8.77
2017-11-13T03:24:26.645Z,8.62
2017-11-13T03:25:07.197Z,8.61
2017-11-13T03:25:47.753Z,8.63
2017-11-13T03:26:28.304Z,8.62
2017-11-13T03:27:08.841Z,8.53
2017-11-13T03:27:49.387Z,8.48
2017-11-13T03:28:30.206Z,8.4
2017-11-13T03:29:10.771Z,8.43
2017-11-13T03:29:51.314Z,8.34
2017-11-13T03:30:31.855Z,8.4
2017-11-13T03:31:12.394Z,8.37
2017-11-13T03:31:52.935Z,8.37
2017-11-13T03:32:33.482Z,8.38
2017-11-13T03:33:14.017Z,8.36
2017-11-13T03:33:54.593Z,8.41
2017-11-13T03:34:35.123Z,8.47
2017-11-13T03:35:15.684Z,8.44
2017-11-13T03:35:56.349Z,8.41
2017-11-13T03:36:36.993Z,8.44
2017-11-13T03:37:17.551Z,8.4
2017-11-13T03:37:58.161Z,8.43
2017-11-13T03:38:38.697Z,8.34
2017-11-13T03:39:19.244Z,8.38
2017-11-13T03:39:59.807Z,8.43
2017-11-13T03:40:40.358Z,8.48
2017-11-13T03:41:20.911Z,8.66
2017-11-13T03:42:01.481Z,8.63
2017-11-13T03:42:42.136Z,8.63
2017-11-13T03:43:22.679Z,8.84
2017-11-13T03:44:03.224Z,8.79
2017-11-13T03:44:43.748Z,8.89
2017-11-13T03:45:24.376Z,8.83
2017-11-13T03:46:04.913Z,8.8
2017-11-13T03:46:45.475Z,8.8
2017-11-13T03:47:25.969Z,8.7
2017-11-13T03:48:06.520Z,8.7
2017-11-13T03:48:47.080Z,8.77
2017-11-13T03:49:27.659Z,8.73
2017-11-13T03:50:08.176Z,8.76
2017-11-13T03:50:48.741Z,8.83
2017-11-13T03:51:29.301Z,8.81
2017-11-13T03:52:09.846Z,8.84
2017-11-13T03:52:50.399Z,8.83
2017-11-13T03:53:30.941Z,8.83
2017-11-13T03:54:11.508Z,8.94
2017-11-13T03:54:52.072Z,8.74
2017-11-13T03:55:32.628Z,8.73
2017-11-13T03:56:13.162Z,8.73
2017-11-13T03:56:53.722Z,8.59
2017-11-13T03:57:34.289Z,8.59
2017-11-13T03:58:14.828Z,8.73
2017-11-13T03:58:55.399Z,8.62
2017-11-13T03:59:35.928Z,8.58
2017-11-13T04:00:16.482Z,8.62
2017-11-13T04:00:57.060Z,8.71
2017-11-13T04:01:37.586Z,8.81
2017-11-13T04:02:18.129Z,8.86
2017-11-13T04:02:58.665Z,8.91
2017-11-13T04:03:39.219Z,8.84
2017-11-13T04:04:19.782Z,8.87
2017-11-13T04:05:00.317Z,8.84
2017-11-13T04:05:40.867Z,8.81
2017-11-13T04:06:21.421Z,8.8
2017-11-13T04:07:01.953Z,8.91
2017-11-13T04:07:42.529Z,8.94
2017-11-13T04:08:23.049Z,8.92
2017-11-13T04:09:03.577Z,8.95
2017-11-13T04:09:44.143Z,8.91
2017-11-13T04:10:24.702Z,8.91
2017-11-13T04:11:05.206Z,8.91
2017-11-13T04:11:45.802Z,8.83
2017-11-13T04:12:26.347Z,8.74
2017-11-13T04:13:06.876Z,8.77
2017-11-13T04:13:47.448Z,8.76
2017-11-13T04:14:28.020Z,8.63
2017-11-13T04:15:08.544Z,8.7
2017-11-13T04:15:49.104Z,8.62
2017-11-13T04:16:29.653Z,8.61
2017-11-13T04:17:10.190Z,8.76
2017-11-13T04:17:50.707Z,8.7
2017-11-13T04:18:31.234Z,8.8
2017-11-13T04:19:11.774Z,8.76
2017-11-13T04:19:52.308Z,8.76
2017-11-13T04:20:32.831Z,8.83
2017-11-13T04:21:13.364Z,8.86
2017-11-13T04:21:53.950Z,8.8
2017-11-13T04:22:34.448Z,8.89
2017-11-13T04:23:14.980Z,8.81
2017-11-13T04:23:55.520Z,8.66
2017-11-13T04:24:36.033Z,8.63
2017-11-13T04:25:16.585Z,8.56
2017-11-13T04:25:57.148Z,8.58
2017-11-13T04:26:37.704Z,8.61
2017-11-13T04:27:18.262Z,8.53
2017-11-13T04:27:58.803Z,8.71
2017-11-13T04:28:39.337Z,8.68
2017-11-13T04:29:19.895Z,8.73
2017-11-13T04:30:00.428Z,8.62
2017-11-13T04:30:40.976Z,8.68
2017-11-13T04:31:21.510Z,8.65
2017-11-13T04:32:02.052Z,8.76
2017-11-13T04:32:42.627Z,8.77
2017-11-13T04:33:23.151Z,8.86
2017-11-13T04:34:03.717Z,8.87
2017-11-13T04:34:44.258Z,8.84
2017-11-13T04:35:24.816Z,8.83
2017-11-13T04:36:05.340Z,8.76
2017-11-13T04:36:45.874Z,8.68
2017-11-13T04:37:26.410Z,8.7
2017-11-13T04:38:06.949Z,8.77
2017-11-13T04:38:47.488Z,8.83
2017-11-13T04:39:28.015Z,8.71
2017-11-13T04:40:08.594Z,8.77
2017-11-13T04:40:49.192Z,8.83
2017-11-13T04:41:29.735Z,8.8
2017-11-13T04:42:10.290Z,8.89
2017-11-13T04:42:50.822Z,8.96
2017-11-13T04:43:31.346Z,8.91
2017-11-13T04:44:11.908Z,8.92
2017-11-13T04:44:52.449Z,8.87
2017-11-13T04:45:32.965Z,8.89
2017-11-13T04:46:13.541Z,8.87
2017-11-13T04:46:54.085Z,8.68
2017-11-13T04:47:34.657Z,8.77
2017-11-13T04:48:15.204Z,8.73
2017-11-13T04:48:55.705Z,8.59
2017-11-13T04:49:36.227Z,8.44
2017-11-13T04:50:16.762Z,8.48
2017-11-13T04:50:57.309Z,8.4
2017-11-13T04:51:37.825Z,8.37
2017-11-13T04:52:18.365Z,8.48
2017-11-13T04:52:58.897Z,8.4
2017-11-13T04:53:39.445Z,8.48
2017-11-13T04:54:19.971Z,8.45
2017-11-13T04:55:00.517Z,8.41
2017-11-13T04:55:41.095Z,8.52
2017-11-13T04:56:21.620Z,8.3
2017-11-13T04:57:02.178Z,8.37
2017-11-13T04:57:42.743Z,8.45
2017-11-13T04:58:23.293Z,8.37
2017-11-13T04:59:03.823Z,8.43
2017-11-13T04:59:44.360Z,8.47
2017-11-13T05:00:24.911Z,8.52
2017-11-13T05:01:05.461Z,8.59
2017-11-13T05:01:45.982Z,8.58
2017-11-13T05:02:26.542Z,8.56
2017-11-13T05:03:07.091Z,8.68
2017-11-13T05:03:47.610Z,8.63
2017-11-13T05:04:28.136Z,8.73
2017-11-13T05:05:08.794Z,8.66
2017-11-13T05:05:49.326Z,8.65
2017-11-13T05:06:29.887Z,8.68
2017-11-13T05:07:10.444Z,8.47
2017-11-13T05:07:51.031Z,8.58
2017-11-13T05:08:31.525Z,8.58
2017-11-13T05:09:12.081Z,8.65
2017-11-13T05:09:52.624Z,8.65
2017-11-13T05:10:33.163Z,8.61
2017-11-13T05:11:13.738Z,8.4
2017-11-13T05:11:54.266Z,8.44
2017-11-13T05:12:34.833Z,8.5
2017-11-13T05:13:15.508Z,8.44
2017-11-13T05:13:56.038Z,8.43
2017-11-13T05:14:36.555Z,8.37
2017-11-13T05:15:17.068Z,8.4
2017-11-13T05:15:57.621Z,8.44
2017-11-13T05:16:38.965Z,8.41
2017-11-13T05:17:19.499Z,8.45
2017-11-13T05:18:00.015Z,8.44
2017-11-13T05:18:40.598Z,8.43
2017-11-13T05:19:21.110Z,8.4
2017-11-13T05:20:01.667Z,8.34
2017-11-13T05:20:42.203Z,8.3
2017-11-13T05:21:22.727Z,8.34
2017-11-13T05:22:03.275Z,8.34
2017-11-13T05:22:43.856Z,8.37
2017-11-13T05:23:24.412Z,8.3
2017-11-13T05:24:04.936Z,8.26
2017-11-13T05:24:45.460Z,8.3
2017-11-13T05:25:26.005Z,8.29
2017-11-13T05:26:06.569Z,8.34
2017-11-13T05:26:47.105Z,8.34
2017-11-13T05:27:27.635Z,8.34
2017-11-13T05:28:08.202Z,8.4
2017-11-13T05:28:48.709Z,8.52
2017-11-13T05:29:29.222Z,8.58
2017-11-13T05:30:09.764Z,8.56
2017-11-13T05:30:50.319Z,8.65
2017-11-13T05:31:30.864Z,8.65
2017-11-13T05:32:11.407Z,8.62
2017-11-13T05:32:51.950Z,8.59
2017-11-13T05:33:32.467Z,8.43
2017-11-13T05:34:13.005Z,8.45
2017-11-13T05:34:53.562Z,8.52
2017-11-13T05:35:34.097Z,8.47
2017-11-13T05:36:15.280Z,8.41
2017-11-13T05:36:55.843Z,8.33
2017-11-13T05:37:36.404Z,8.38
2017-11-13T05:38:16.946Z,8.41
2017-11-13T05:38:57.490Z,8.4
2017-11-13T05:39:38.033Z,8.38
2017-11-13T05:40:18.570Z,8.4
2017-11-13T05:40:59.114Z,8.48
2017-11-13T05:41:39.640Z,8.5
2017-11-13T05:42:20.351Z,8.55
2017-11-13T05:43:00.874Z,8.53
2017-11-13T05:43:41.399Z,8.65
2017-11-13T05:44:21.969Z,8.5
2017-11-13T05:45:02.606Z,8.5
2017-11-13T05:45:43.118Z,8.56
2017-11-13T05:46:23.685Z,8.45
2017-11-13T05:47:04.201Z,8.52
2017-11-13T05:47:44.738Z,8.5
2017-11-13T05:48:25.310Z,8.48
2017-11-13T05:49:05.828Z,8.38
2017-11-13T05:49:46.409Z,8.45
2017-11-13T05:50:26.969Z,8.45
2017-11-13T05:51:07.532Z,8.38
2017-11-13T05:51:48.063Z,8.37
2017-11-13T05:52:28.627Z,8.43
2017-11-13T05:53:09.159Z,8.37
2017-11-13T05:53:49.692Z,8.45
2017-11-13T05:54:30.272Z,8.48
2017-11-13T05:55:10.829Z,8.45
2017-11-13T05:55:51.398Z,8.48
2017-11-13T05:56:31.929Z,8.56
2017-11-13T05:57:12.488Z,8.61
2017-11-13T05:57:53.052Z,8.56
2017-11-13T05:58:33.598Z,8.65
2017-11-13T05:59:14.156Z,8.63
2017-11-13T05:59:54.721Z,8.48
2017-11-13T06:00:35.265Z,8.5
2017-11-13T06:01:15.793Z,8.52
2017-11-13T06:01:56.338Z,8.56
2017-11-13T06:02:36.885Z,8.58
2017-11-13T06:03:17.430Z,8.65
2017-11-13T06:03:57.963Z,8.71
2017-11-13T06:04:38.487Z,8.65
2017-11-13T06:05:19.025Z,8.71
2017-11-13T06:05:59.569Z,8.76
2017-11-13T06:06:40.127Z,8.77
2017-11-13T06:07:20.662Z,8.66
2017-11-13T06:08:01.244Z,8.76
2017-11-13T06:08:41.791Z,8.74
2017-11-13T06:09:22.339Z,8.77
2017-11-13T06:10:02.880Z,8.79
2017-11-13T06:10:43.424Z,8.83
2017-11-13T06:11:23.978Z,8.74
2017-11-13T06:12:04.529Z,8.59
2017-11-13T06:12:45.082Z,8.62
2017-11-13T06:13:25.644Z,8.47
2017-11-13T06:14:06.207Z,8.45
2017-11-13T06:14:46.734Z,8.61
2017-11-13T06:15:27.265Z,8.68
2017-11-13T06:16:07.764Z,8.63
2017-11-13T06:16:48.329Z,8.76
2017-11-13T06:17:28.860Z,8.73
2017-11-13T06:18:09.411Z,8.76
2017-11-13T06:18:49.951Z,8.8
2017-11-13T06:19:30.484Z,8.76
2017-11-13T06:20:11.044Z,8.79
2017-11-13T06:20:51.574Z,8.83
2017-11-13T06:21:32.160Z,8.84
2017-11-13T06:22:12.666Z,8.76
2017-11-13T06:22:53.195Z,8.77
2017-11-13T06:23:33.724Z,8.7
2017-11-13T06:24:14.268Z,8.76
2017-11-13T06:24:54.809Z,8.81
2017-11-13T06:25:35.344Z,8.84
2017-11-13T06:26:15.876Z,8.71
2017-11-13T06:26:56.400Z,8.79
2017-11-13T06:27:36.951Z,8.81
2017-11-13T06:28:17.514Z,8.87
2017-11-13T06:28:58.010Z,8.92
2017-11-13T06:29:38.571Z,8.83
2017-11-13T06:30:19.101Z,8.86
2017-11-13T06:30:59.714Z,8.84
2017-11-13T06:31:40.234Z,9.01
2017-11-13T06:32:20.766Z,9.04
2017-11-13T06:33:01.308Z,9.04
2017-11-13T06:33:41.840Z,9.02
2017-11-13T06:34:22.433Z,9.11
2017-11-13T06:35:02.956Z,9.08
2017-11-13T06:35:43.506Z,8.96
2017-11-13T06:36:24.161Z,9.05
2017-11-13T06:37:04.704Z,9.02
2017-11-13T06:37:45.226Z,8.99
2017-11-13T06:38:25.886Z,8.98
2017-11-13T06:39:06.273Z,8.99
2017-11-13T06:39:46.818Z,9.01
2017-11-13T06:40:27.358Z,8.92
2017-11-13T06:41:07.920Z,8.84
2017-11-13T06:41:48.476Z,8.92
2017-11-13T06:42:28.982Z,9.02
2017-11-13T06:43:09.595Z,8.98
2017-11-13T06:43:50.133Z,9.04
2017-11-13T06:44:30.636Z,8.98
2017-11-13T06:45:11.262Z,8.99
2017-11-13T06:45:51.836Z,8.99
2017-11-13T06:46:32.353Z,8.81
2017-11-13T06:47:12.842Z,8.87
2017-11-13T06:47:53.377Z,8.83
2017-11-13T06:48:33.920Z,8.86
2017-11-13T06:49:14.430Z,8.74
2017-11-13T06:49:55.063Z,8.89
2017-11-13T06:50:35.618Z,8.77
2017-11-13T06:51:16.146Z,8.73
2017-11-13T06:51:56.805Z,8.66
2017-11-13T06:52:37.370Z,8.76
2017-11-13T06:53:17.956Z,8.8
2017-11-13T06:53:58.486Z,8.65
2017-11-13T06:54:39.114Z,8.62
2017-11-13T06:55:19.612Z,8.71
2017-11-13T06:56:00.189Z,8.74
2017-11-13T06:56:40.802Z,8.84
2017-11-13T06:57:21.312Z,8.79
2017-11-13T06:58:01.857Z,8.89
2017-11-13T06:58:42.369Z,8.79
2017-11-13T06:59:22.932Z,8.89
2017-11-13T07:00:03.590Z,8.84
2017-11-13T07:00:44.114Z,8.84
2017-11-13T07:01:25.585Z,8.87
2017-11-13T07:02:05.665Z,8.91
2017-11-13T07:02:46.271Z,8.86
2017-11-13T07:03:27.037Z,8.95
2017-11-13T07:04:07.556Z,8.92
2017-11-13T07:04:48.289Z,8.92
2017-11-13T07:05:28.903Z,8.87
2017-11-13T07:06:09.520Z,8.99
2017-11-13T07:06:50.084Z,8.95
2017-11-13T07:07:30.752Z,8.98
2017-11-13T07:08:11.353Z,8.92
2017-11-13T07:08:51.883Z,8.91
2017-11-13T07:09:32.460Z,9.08
2017-11-13T07:10:12.989Z,8.98
2017-11-13T07:10:53.605Z,8.96
2017-11-13T07:11:34.040Z,9.08
2017-11-13T07:12:14.630Z,9.08
2017-11-13T07:12:55.138Z,9.01
2017-11-13T07:13:35.673Z,9.14
2017-11-13T07:14:16.374Z,9.17
2017-11-13T07:14:56.969Z,9.1
2017-11-13T07:15:37.452Z,9.26
2017-11-13T07:16:18.006Z,9.26
2017-11-13T07:16:58.481Z,9.39
2017-11-13T07:17:39.230Z,9.46
2017-11-13T07:18:19.844Z,9.51
2017-11-13T07:19:00.777Z,9.53
2017-11-13T07:19:41.222Z,9.5
2017-11-13T07:20:21.798Z,9.6
2017-11-13T07:21:02.406Z,9.74
2017-11-13T07:21:42.958Z,9.75
2017-11-13T07:22:23.565Z,9.74
2017-11-13T07:23:04.079Z,9.74
2017-11-13T07:23:44.889Z,9.75
2017-11-13T07:24:25.295Z,9.78
2017-11-13T07:25:05.887Z,10.32
2017-11-13T07:25:46.460Z,10.67
2017-11-13T07:26:27.071Z,10.67
2017-11-13T07:27:07.618Z,10.6
2017-11-13T07:27:48.200Z,10.63
2017-11-13T07:28:28.703Z,10.53
2017-11-13T07:29:09.275Z,10.55
2017-11-13T07:29:49.856Z,10.3
2017-11-13T07:30:30.358Z,10.3
2017-11-13T07:31:10.998Z,10.27
2017-11-13T07:31:51.577Z,10.14
2017-11-13T07:32:32.179Z,10.14
2017-11-13T07:33:12.712Z,10.26
2017-11-13T07:33:53.192Z,10.17
2017-11-13T07:34:33.753Z,10.07
2017-11-13T07:35:14.281Z,9.93
2017-11-13T07:35:54.816Z,9.96
2017-11-13T07:36:35.318Z,9.94
2017-11-13T07:37:15.913Z,9.96
2017-11-13T07:37:56.401Z,9.97
2017-11-13T07:38:37.041Z,10.08
2017-11-13T07:39:17.602Z,10.47
2017-11-13T07:39:58.167Z,10.67
2017-11-13T07:40:38.662Z,10.63
2017-11-13T07:41:19.322Z,10.61
2017-11-13T07:41:59.924Z,10.82
2017-11-13T07:42:40.498Z,10.84
2017-11-13T07:43:21.047Z,10.59
2017-11-13T07:44:01.565Z,10.78
2017-11-13T07:44:42.139Z,10.74
2017-11-13T07:45:22.737Z,10.82
2017-11-13T07:46:03.267Z,10.82
2017-11-13T07:46:43.837Z,10.79
2017-11-13T07:47:24.342Z,10.7
2017-11-13T07:48:04.949Z,10.32
2017-11-13T07:48:45.429Z,10.17
2017-11-13T07:49:25.971Z,9.93
2017-11-13T07:50:06.537Z,9.94
2017-11-13T07:50:47.334Z,10.05
2017-11-13T07:51:27.821Z,10.04
2017-11-13T07:52:08.356Z,10.04
2017-11-13T07:52:48.880Z,10.07
2017-11-13T07:53:29.403Z,9.94
2017-11-13T07:54:09.899Z,10.11
2017-11-13T07:54:50.447Z,10.08
2017-11-13T07:55:30.923Z,10.05
2017-11-13T07:56:11.481Z,10.17
2017-11-13T07:56:52.032Z,10.22
2017-11-13T07:57:32.578Z,10.25
2017-11-13T07:58:13.165Z,9.96
2017-11-13T07:58:53.689Z,9.96
2017-11-13T07:59:34.209Z,9.86
2017-11-13T08:00:14.768Z,9.89
2017-11-13T08:00:55.288Z,9.9
2017-11-13T08:01:35.829Z,9.94
2017-11-13T08:02:16.423Z,10.05
2017-11-13T08:02:57.062Z,10.07
2017-11-13T08:03:37.669Z,10.12
2017-11-13T08:04:18.190Z,9.9
2017-11-13T08:04:58.734Z,10.01
2017-11-13T08:05:39.232Z,10.05
2017-11-13T08:06:19.728Z,10.05
2017-11-13T08:07:00.265Z,10.12
2017-11-13T08:07:40.865Z,10.01
2017-11-13T08:08:21.448Z,9.93
2017-11-13T08:09:01.928Z,9.9
2017-11-13T08:09:42.483Z,9.97
2017-11-13T08:10:23.002Z,10.04
2017-11-13T08:11:03.565Z,10.07
2017-11-13T08:11:44.121Z,10.02
2017-11-13T08:12:24.649Z,10.09
2017-11-13T08:13:05.204Z,10.18
2017-11-13T08:13:45.800Z,10.17
2017-11-13T08:14:26.320Z,10.18
2017-11-13T08:15:06.886Z,10.12
2017-11-13T08:15:47.483Z,9.97
2017-11-13T08:16:27.962Z,10.07
2017-11-13T08:17:08.491Z,10.11
2017-11-13T08:17:49.315Z,10.14
2017-11-13T08:18:29.875Z,9.99
2017-11-13T08:19:10.405Z,9.89
2017-11-13T08:19:50.938Z,9.93
2017-11-13T08:20:31.492Z,9.91
2017-11-13T08:21:12.036Z,9.86
2017-11-13T08:21:52.599Z,10.07
2017-11-13T08:22:33.069Z,10.2
2017-11-13T08:23:13.876Z,10.48
2017-11-13T08:23:54.724Z,10.2
2017-11-13T08:24:35.147Z,10.07
2017-11-13T08:25:15.743Z,10.05
2017-11-13T08:25:56.224Z,10.27
2017-11-13T08:26:36.771Z,10.63
2017-11-13T08:27:17.372Z,11
2017-11-13T08:27:57.848Z,11.1
2017-11-13T08:28:38.463Z,11.18
2017-11-13T08:29:18.983Z,11.39
2017-11-13T08:29:59.518Z,11.18
2017-11-13T08:30:40.025Z,10.94
2017-11-13T08:31:20.552Z,10.78
2017-11-13T08:32:01.103Z,10.71
2017-11-13T08:32:41.620Z,10.64
2017-11-13T08:33:22.158Z,10.52
2017-11-13T08:34:02.651Z,10.53
2017-11-13T08:34:43.187Z,10.78
2017-11-13T08:35:23.756Z,10.94
2017-11-13T08:36:04.268Z,10.99
2017-11-13T08:36:44.822Z,10.99
2017-11-13T08:37:25.365Z,10.96
2017-11-13T08:38:05.950Z,11.03
2017-11-13T08:38:46.472Z,11.39
2017-11-13T08:39:27.029Z,11.37
2017-11-13T08:40:07.595Z,11.35
2017-11-13T08:40:48.133Z,11.17
2017-11-13T08:41:28.685Z,11.24
2017-11-13T08:42:09.213Z,11.09
2017-11-13T08:42:49.788Z,10.94
2017-11-13T08:43:30.308Z,10.86
2017-11-13T08:44:10.891Z,10.64
2017-11-13T08:44:51.389Z,10.56
2017-11-13T08:45:31.940Z,10.38
2017-11-13T08:46:12.522Z,10.33
2017-11-13T08:46:53.073Z,10.52
2017-11-13T08:47:33.671Z,10.44
2017-11-13T08:48:14.186Z,10.55
2017-11-13T08:48:54.731Z,10.76
2017-11-13T08:49:35.227Z,10.78
2017-11-13T08:50:15.776Z,10.89
2017-11-13T08:50:56.316Z,10.91
2017-11-13T08:51:36.885Z,11
2017-11-13T08:52:17.481Z,11.07
2017-11-13T08:52:57.985Z,11.06
2017-11-13T08:53:38.551Z,11.06
2017-11-13T08:54:19.146Z,11.07
2017-11-13T08:54:59.713Z,11.02
2017-11-13T08:55:40.200Z,10.96
2017-11-13T08:56:20.772Z,10.99
2017-11-13T08:57:01.326Z,11
2017-11-13T08:57:41.849Z,10.79
2017-11-13T08:58:22.405Z,10.74
2017-11-13T08:59:03.121Z,10.73